sensor_id;sensor_type;location;lat;lon;timestamp;pressure;altitude;pressure_sealevel;temperature;humidity
73073;BME280;61260;51.090;-1.786;2022-09-01T00:00:14;101461.12;;;14.75;65.95
73073;BME280;61260;51.090;-1.786;2022-09-01T00:02:46;101457.98;;;14.72;66.25
73073;BME280;61260;51.090;-1.786;2022-09-01T00:05:15;101457.42;;;14.69;66.07
73073;BME280;61260;51.090;-1.786;2022-09-01T00:07:46;101454.70;;;14.64;66.17
73073;BME280;61260;51.090;-1.786;2022-09-01T00:10:16;101451.20;;;14.61;66.14
73073;BME280;61260;51.090;-1.786;2022-09-01T00:12:46;101450.89;;;14.55;66.30
73073;BME280;61260;51.090;-1.786;2022-09-01T00:15:16;101452.05;;;14.52;66.72
73073;BME280;61260;51.090;-1.786;2022-09-01T00:17:45;101449.83;;;14.48;66.52
73073;BME280;61260;51.090;-1.786;2022-09-01T00:20:15;101447.04;;;14.44;66.67
73073;BME280;61260;51.090;-1.786;2022-09-01T00:22:45;101445.59;;;14.38;66.71
73073;BME280;61260;51.090;-1.786;2022-09-01T00:25:15;101447.98;;;14.33;66.74
73073;BME280;61260;51.090;-1.786;2022-09-01T00:27:47;101444.13;;;14.33;66.67
73073;BME280;61260;51.090;-1.786;2022-09-01T00:30:18;101444.98;;;14.30;66.89
73073;BME280;61260;51.090;-1.786;2022-09-01T00:32:48;101443.09;;;14.28;67.22
73073;BME280;61260;51.090;-1.786;2022-09-01T00:35:19;101440.33;;;14.25;67.34
73073;BME280;61260;51.090;-1.786;2022-09-01T00:37:49;101438.98;;;14.22;67.58
73073;BME280;61260;51.090;-1.786;2022-09-01T00:40:18;101434.33;;;14.19;67.93
73073;BME280;61260;51.090;-1.786;2022-09-01T00:42:48;101432.05;;;14.16;68.57
73073;BME280;61260;51.090;-1.786;2022-09-01T00:45:18;101435.11;;;14.14;68.63
73073;BME280;61260;51.090;-1.786;2022-09-01T00:47:49;101431.42;;;14.11;68.60
73073;BME280;61260;51.090;-1.786;2022-09-01T00:50:19;101427.02;;;14.09;68.90
73073;BME280;61260;51.090;-1.786;2022-09-01T00:52:51;101429.69;;;14.09;68.87
73073;BME280;61260;51.090;-1.786;2022-09-01T00:55:24;101426.19;;;14.13;69.05
73073;BME280;61260;51.090;-1.786;2022-09-01T00:57:55;101423.21;;;14.12;69.09
73073;BME280;61260;51.090;-1.786;2022-09-01T01:00:29;101422.38;;;14.11;69.17
73073;BME280;61260;51.090;-1.786;2022-09-01T01:02:59;101414.98;;;14.10;69.54
73073;BME280;61260;51.090;-1.786;2022-09-01T01:05:33;101415.13;;;14.07;69.85
73073;BME280;61260;51.090;-1.786;2022-09-01T01:08:05;101409.81;;;14.06;70.19
73073;BME280;61260;51.090;-1.786;2022-09-01T01:10:37;101403.73;;;14.04;70.12
73073;BME280;61260;51.090;-1.786;2022-09-01T01:13:10;101405.55;;;14.02;70.49
73073;BME280;61260;51.090;-1.786;2022-09-01T01:15:41;101401.23;;;13.99;70.91
73073;BME280;61260;51.090;-1.786;2022-09-01T01:18:13;101400.32;;;13.98;71.22
73073;BME280;61260;51.090;-1.786;2022-09-01T01:20:43;101397.17;;;13.98;71.39
73073;BME280;61260;51.090;-1.786;2022-09-01T01:23:36;101398.15;;;14.04;71.39
73073;BME280;61260;51.090;-1.786;2022-09-01T01:26:09;101399.59;;;14.05;71.72
73073;BME280;61260;51.090;-1.786;2022-09-01T01:28:40;101396.02;;;14.08;72.25
73073;BME280;61260;51.090;-1.786;2022-09-01T01:31:14;101395.38;;;14.14;72.16
73073;BME280;61260;51.090;-1.786;2022-09-01T01:33:47;101392.70;;;14.20;72.11
73073;BME280;61260;51.090;-1.786;2022-09-01T01:36:19;101393.10;;;14.28;73.26
73073;BME280;61260;51.090;-1.786;2022-09-01T01:39:01;101388.86;;;14.37;73.27
73073;BME280;61260;51.090;-1.786;2022-09-01T01:41:32;101386.65;;;14.44;73.21
73073;BME280;61260;51.090;-1.786;2022-09-01T01:44:03;101379.73;;;14.50;73.21
73073;BME280;61260;51.090;-1.786;2022-09-01T01:46:34;101381.48;;;14.54;72.90
73073;BME280;61260;51.090;-1.786;2022-09-01T01:49:05;101383.65;;;14.55;72.90
73073;BME280;61260;51.090;-1.786;2022-09-01T01:51:34;101380.15;;;14.56;72.95
73073;BME280;61260;51.090;-1.786;2022-09-01T01:54:04;101383.44;;;14.59;72.91
73073;BME280;61260;51.090;-1.786;2022-09-01T01:56:35;101383.97;;;14.66;72.92
73073;BME280;61260;51.090;-1.786;2022-09-01T01:59:06;101383.42;;;14.69;73.01
73073;BME280;61260;51.090;-1.786;2022-09-01T02:01:43;101378.59;;;14.73;73.13
73073;BME280;61260;51.090;-1.786;2022-09-01T02:04:19;101377.38;;;14.78;73.02
73073;BME280;61260;51.090;-1.786;2022-09-01T02:06:50;101377.02;;;14.82;73.08
73073;BME280;61260;51.090;-1.786;2022-09-01T02:09:21;101379.34;;;14.87;73.78
73073;BME280;61260;51.090;-1.786;2022-09-01T02:11:51;101374.23;;;14.90;73.57
73073;BME280;61260;51.090;-1.786;2022-09-01T02:14:24;101373.33;;;14.94;73.78
73073;BME280;61260;51.090;-1.786;2022-09-01T02:16:54;101368.69;;;15.00;73.39
73073;BME280;61260;51.090;-1.786;2022-09-01T02:19:24;101369.32;;;15.03;73.65
73073;BME280;61260;51.090;-1.786;2022-09-01T02:21:53;101364.63;;;15.07;73.69
73073;BME280;61260;51.090;-1.786;2022-09-01T02:24:24;101365.56;;;15.16;73.71
73073;BME280;61260;51.090;-1.786;2022-09-01T02:26:54;101356.73;;;15.18;74.02
73073;BME280;61260;51.090;-1.786;2022-09-01T02:29:25;101354.39;;;15.19;73.50
73073;BME280;61260;51.090;-1.786;2022-09-01T02:31:57;101353.46;;;15.20;73.58
73073;BME280;61260;51.090;-1.786;2022-09-01T02:34:27;101348.98;;;15.20;73.43
73073;BME280;61260;51.090;-1.786;2022-09-01T02:36:59;101351.48;;;15.19;73.36
73073;BME280;61260;51.090;-1.786;2022-09-01T02:39:30;101347.90;;;15.17;73.41
73073;BME280;61260;51.090;-1.786;2022-09-01T02:41:59;101348.13;;;15.17;73.71
73073;BME280;61260;51.090;-1.786;2022-09-01T02:44:29;101347.27;;;15.14;73.84
73073;BME280;61260;51.090;-1.786;2022-09-01T02:47:00;101345.96;;;15.15;73.85
73073;BME280;61260;51.090;-1.786;2022-09-01T02:49:32;101346.58;;;15.21;73.78
73073;BME280;61260;51.090;-1.786;2022-09-01T02:52:03;101343.09;;;15.23;73.92
73073;BME280;61260;51.090;-1.786;2022-09-01T02:54:33;101338.27;;;15.25;73.70
73073;BME280;61260;51.090;-1.786;2022-09-01T02:57:03;101341.52;;;15.27;73.88
73073;BME280;61260;51.090;-1.786;2022-09-01T02:59:36;101335.30;;;15.26;73.97
73073;BME280;61260;51.090;-1.786;2022-09-01T03:02:05;101330.96;;;15.26;73.76
73073;BME280;61260;51.090;-1.786;2022-09-01T03:04:35;101331.41;;;15.24;73.79
73073;BME280;61260;51.090;-1.786;2022-09-01T03:07:06;101329.48;;;15.23;74.41
73073;BME280;61260;51.090;-1.786;2022-09-01T03:09:36;101326.55;;;15.22;74.49
73073;BME280;61260;51.090;-1.786;2022-09-01T03:12:08;101320.73;;;15.25;74.05
73073;BME280;61260;51.090;-1.786;2022-09-01T03:14:38;101318.98;;;15.25;74.23
73073;BME280;61260;51.090;-1.786;2022-09-01T03:17:08;101319.36;;;15.23;74.48
73073;BME280;61260;51.090;-1.786;2022-09-01T03:19:38;101315.20;;;15.24;74.32
73073;BME280;61260;51.090;-1.786;2022-09-01T03:22:09;101317.09;;;15.24;74.36
73073;BME280;61260;51.090;-1.786;2022-09-01T03:24:39;101316.13;;;15.23;74.73
73073;BME280;61260;51.090;-1.786;2022-09-01T03:27:09;101313.38;;;15.19;74.76
73073;BME280;61260;51.090;-1.786;2022-09-01T03:29:39;101308.30;;;15.15;74.74
73073;BME280;61260;51.090;-1.786;2022-09-01T03:32:08;101307.81;;;15.12;74.72
73073;BME280;61260;51.090;-1.786;2022-09-01T03:34:38;101310.41;;;15.09;74.79
73073;BME280;61260;51.090;-1.786;2022-09-01T03:37:08;101313.77;;;15.07;75.21
73073;BME280;61260;51.090;-1.786;2022-09-01T03:39:39;101306.97;;;15.12;74.95
73073;BME280;61260;51.090;-1.786;2022-09-01T03:42:09;101302.21;;;15.11;75.51
73073;BME280;61260;51.090;-1.786;2022-09-01T03:44:46;101304.77;;;15.09;75.43
73073;BME280;61260;51.090;-1.786;2022-09-01T03:47:16;101295.81;;;15.09;76.15
73073;BME280;61260;51.090;-1.786;2022-09-01T03:49:48;101295.88;;;15.09;75.72
73073;BME280;61260;51.090;-1.786;2022-09-01T03:52:19;101290.58;;;15.07;76.09
73073;BME280;61260;51.090;-1.786;2022-09-01T03:54:52;101284.93;;;15.04;76.23
73073;BME280;61260;51.090;-1.786;2022-09-01T03:57:22;101282.66;;;15.01;76.12
73073;BME280;61260;51.090;-1.786;2022-09-01T03:59:54;101283.17;;;14.97;76.18
73073;BME280;61260;51.090;-1.786;2022-09-01T04:02:24;101284.76;;;14.94;77.17
73073;BME280;61260;51.090;-1.786;2022-09-01T04:04:57;101281.48;;;14.98;77.01
73073;BME280;61260;51.090;-1.786;2022-09-01T04:07:28;101279.34;;;14.97;76.57
73073;BME280;61260;51.090;-1.786;2022-09-01T04:09:57;101280.17;;;14.94;76.43
73073;BME280;61260;51.090;-1.786;2022-09-01T04:12:27;101277.27;;;14.91;76.68
73073;BME280;61260;51.090;-1.786;2022-09-01T04:14:58;101281.50;;;14.89;77.28
73073;BME280;61260;51.090;-1.786;2022-09-01T04:17:28;101275.38;;;14.86;77.77
73073;BME280;61260;51.090;-1.786;2022-09-01T04:20:15;101270.80;;;14.82;77.84
73073;BME280;61260;51.090;-1.786;2022-09-01T04:22:47;101268.86;;;14.80;77.89
73073;BME280;61260;51.090;-1.786;2022-09-01T04:25:19;101270.27;;;14.80;78.24
73073;BME280;61260;51.090;-1.786;2022-09-01T04:27:55;101270.30;;;14.84;78.23
73073;BME280;61260;51.090;-1.786;2022-09-01T04:30:26;101265.80;;;14.84;78.74
73073;BME280;61260;51.090;-1.786;2022-09-01T04:32:59;101266.02;;;14.86;78.48
73073;BME280;61260;51.090;-1.786;2022-09-01T04:35:29;101263.59;;;14.86;78.77
73073;BME280;61260;51.090;-1.786;2022-09-01T04:37:59;101265.00;;;14.90;78.29
73073;BME280;61260;51.090;-1.786;2022-09-01T04:40:30;101266.31;;;14.92;79.16
73073;BME280;61260;51.090;-1.786;2022-09-01T04:42:59;101267.61;;;14.94;78.78
73073;BME280;61260;51.090;-1.786;2022-09-01T04:45:29;101266.05;;;14.97;78.88
73073;BME280;61260;51.090;-1.786;2022-09-01T04:47:59;101264.36;;;15.02;78.74
73073;BME280;61260;51.090;-1.786;2022-09-01T04:50:30;101257.27;;;15.11;78.13
73073;BME280;61260;51.090;-1.786;2022-09-01T04:53:00;101261.55;;;15.16;78.25
73073;BME280;61260;51.090;-1.786;2022-09-01T04:55:31;101259.29;;;15.20;78.46
73073;BME280;61260;51.090;-1.786;2022-09-01T04:58:02;101254.71;;;15.23;78.50
73073;BME280;61260;51.090;-1.786;2022-09-01T05:00:32;101255.19;;;15.26;78.12
73073;BME280;61260;51.090;-1.786;2022-09-01T05:03:04;101258.13;;;15.30;77.91
73073;BME280;61260;51.090;-1.786;2022-09-01T05:05:39;101260.51;;;15.33;78.05
73073;BME280;61260;51.090;-1.786;2022-09-01T05:08:13;101253.89;;;15.37;77.76
73073;BME280;61260;51.090;-1.786;2022-09-01T05:10:45;101255.76;;;15.36;77.76
73073;BME280;61260;51.090;-1.786;2022-09-01T05:13:19;101256.77;;;15.35;77.73
73073;BME280;61260;51.090;-1.786;2022-09-01T05:16:02;101255.27;;;15.35;77.50
73073;BME280;61260;51.090;-1.786;2022-09-01T05:18:33;101255.50;;;15.35;77.76
73073;BME280;61260;51.090;-1.786;2022-09-01T05:21:07;101253.86;;;15.40;77.51
73073;BME280;61260;51.090;-1.786;2022-09-01T05:23:38;101255.01;;;15.41;77.72
73073;BME280;61260;51.090;-1.786;2022-09-01T05:26:13;101254.52;;;15.40;77.62
73073;BME280;61260;51.090;-1.786;2022-09-01T05:28:47;101251.97;;;15.42;77.58
73073;BME280;61260;51.090;-1.786;2022-09-01T05:31:17;101252.41;;;15.45;77.49
73073;BME280;61260;51.090;-1.786;2022-09-01T05:33:49;101251.52;;;15.47;77.76
73073;BME280;61260;51.090;-1.786;2022-09-01T05:36:21;101251.14;;;15.48;77.65
73073;BME280;61260;51.090;-1.786;2022-09-01T05:38:51;101248.69;;;15.50;78.00
73073;BME280;61260;51.090;-1.786;2022-09-01T05:41:22;101246.93;;;15.52;77.79
73073;BME280;61260;51.090;-1.786;2022-09-01T05:43:52;101246.08;;;15.53;78.22
73073;BME280;61260;51.090;-1.786;2022-09-01T05:46:23;101244.88;;;15.60;78.01
73073;BME280;61260;51.090;-1.786;2022-09-01T05:48:55;101247.01;;;15.60;78.18
73073;BME280;61260;51.090;-1.786;2022-09-01T05:51:28;101251.75;;;15.61;78.26
73073;BME280;61260;51.090;-1.786;2022-09-01T05:54:02;101245.59;;;15.64;77.95
73073;BME280;61260;51.090;-1.786;2022-09-01T05:56:35;101245.52;;;15.68;77.72
73073;BME280;61260;51.090;-1.786;2022-09-01T05:59:07;101244.56;;;15.71;77.85
73073;BME280;61260;51.090;-1.786;2022-09-01T06:01:38;101242.71;;;15.72;77.76
73073;BME280;61260;51.090;-1.786;2022-09-01T06:04:10;101236.59;;;15.73;77.92
73073;BME280;61260;51.090;-1.786;2022-09-01T06:06:43;101235.31;;;15.76;77.87
73073;BME280;61260;51.090;-1.786;2022-09-01T06:09:16;101236.56;;;15.83;77.39
73073;BME280;61260;51.090;-1.786;2022-09-01T06:11:45;101238.73;;;15.89;77.16
73073;BME280;61260;51.090;-1.786;2022-09-01T06:14:16;101242.76;;;15.94;77.08
73073;BME280;61260;51.090;-1.786;2022-09-01T06:16:46;101242.92;;;15.99;77.38
73073;BME280;61260;51.090;-1.786;2022-09-01T06:19:15;101244.88;;;16.02;77.26
73073;BME280;61260;51.090;-1.786;2022-09-01T06:21:46;101241.42;;;16.06;77.25
73073;BME280;61260;51.090;-1.786;2022-09-01T06:24:16;101234.31;;;16.09;77.16
73073;BME280;61260;51.090;-1.786;2022-09-01T06:26:45;101235.82;;;16.14;77.11
73073;BME280;61260;51.090;-1.786;2022-09-01T06:29:15;101234.28;;;16.20;77.05
73073;BME280;61260;51.090;-1.786;2022-09-01T06:31:47;101236.20;;;16.30;76.95
73073;BME280;61260;51.090;-1.786;2022-09-01T06:34:20;101232.58;;;16.41;76.62
73073;BME280;61260;51.090;-1.786;2022-09-01T06:36:49;101231.88;;;16.54;76.38
73073;BME280;61260;51.090;-1.786;2022-09-01T06:39:20;101234.05;;;16.66;75.96
73073;BME280;61260;51.090;-1.786;2022-09-01T06:41:50;101236.92;;;16.77;75.66
73073;BME280;61260;51.090;-1.786;2022-09-01T06:44:21;101240.23;;;16.87;75.32
73073;BME280;61260;51.090;-1.786;2022-09-01T06:46:51;101241.80;;;16.95;74.92
73073;BME280;61260;51.090;-1.786;2022-09-01T06:49:22;101242.41;;;17.10;74.55
73073;BME280;61260;51.090;-1.786;2022-09-01T06:52:00;101241.20;;;17.24;74.03
73073;BME280;61260;51.090;-1.786;2022-09-01T06:54:31;101244.71;;;17.32;73.66
73073;BME280;61260;51.090;-1.786;2022-09-01T06:57:03;101244.37;;;17.34;73.46
73073;BME280;61260;51.090;-1.786;2022-09-01T06:59:34;101245.02;;;17.31;73.40
73073;BME280;61260;51.090;-1.786;2022-09-01T07:02:04;101238.45;;;17.34;73.50
73073;BME280;61260;51.090;-1.786;2022-09-01T07:04:33;101241.64;;;17.36;73.42
73073;BME280;61260;51.090;-1.786;2022-09-01T07:07:11;101246.48;;;17.42;73.24
73073;BME280;61260;51.090;-1.786;2022-09-01T07:09:41;101243.15;;;17.47;73.16
73073;BME280;61260;51.090;-1.786;2022-09-01T07:12:11;101243.59;;;17.51;72.98
73073;BME280;61260;51.090;-1.786;2022-09-01T07:14:41;101249.67;;;17.58;73.03
73073;BME280;61260;51.090;-1.786;2022-09-01T07:17:11;101252.14;;;17.64;72.58
73073;BME280;61260;51.090;-1.786;2022-09-01T07:19:41;101248.86;;;17.67;72.45
73073;BME280;61260;51.090;-1.786;2022-09-01T07:22:10;101250.91;;;17.73;72.30
73073;BME280;61260;51.090;-1.786;2022-09-01T07:24:40;101250.02;;;17.83;72.00
73073;BME280;61260;51.090;-1.786;2022-09-01T07:27:10;101252.57;;;17.93;71.63
73073;BME280;61260;51.090;-1.786;2022-09-01T07:29:40;101248.10;;;17.96;71.43
73073;BME280;61260;51.090;-1.786;2022-09-01T07:32:10;101245.79;;;17.99;71.23
73073;BME280;61260;51.090;-1.786;2022-09-01T07:34:41;101244.16;;;18.02;71.17
73073;BME280;61260;51.090;-1.786;2022-09-01T07:37:13;101247.22;;;18.08;70.97
73073;BME280;61260;51.090;-1.786;2022-09-01T07:39:45;101246.70;;;18.31;70.73
73073;BME280;61260;51.090;-1.786;2022-09-01T07:42:17;101238.23;;;18.69;70.33
73073;BME280;61260;51.090;-1.786;2022-09-01T07:44:47;101242.42;;;19.06;68.83
73073;BME280;61260;51.090;-1.786;2022-09-01T07:47:17;101237.19;;;19.25;67.30
73073;BME280;61260;51.090;-1.786;2022-09-01T07:49:47;101241.06;;;19.52;67.13
73073;BME280;61260;51.090;-1.786;2022-09-01T07:52:17;101241.67;;;19.80;65.47
73073;BME280;61260;51.090;-1.786;2022-09-01T07:54:47;101242.06;;;19.97;64.94
73073;BME280;61260;51.090;-1.786;2022-09-01T07:57:17;101242.58;;;20.30;64.29
73073;BME280;61260;51.090;-1.786;2022-09-01T07:59:46;101241.36;;;20.93;64.03
73073;BME280;61260;51.090;-1.786;2022-09-01T08:02:17;101246.95;;;21.46;60.68
73073;BME280;61260;51.090;-1.786;2022-09-01T08:04:47;101247.85;;;21.73;60.22
73073;BME280;61260;51.090;-1.786;2022-09-01T08:07:17;101245.71;;;21.93;58.63
73073;BME280;61260;51.090;-1.786;2022-09-01T08:09:47;101240.60;;;22.41;58.63
73073;BME280;61260;51.090;-1.786;2022-09-01T08:12:17;101245.33;;;22.71;55.86
73073;BME280;61260;51.090;-1.786;2022-09-01T08:14:47;101241.84;;;22.79;55.87
73073;BME280;61260;51.090;-1.786;2022-09-01T08:17:20;101248.50;;;22.73;55.66
73073;BME280;61260;51.090;-1.786;2022-09-01T08:19:50;101242.41;;;22.56;55.83
73073;BME280;61260;51.090;-1.786;2022-09-01T08:22:20;101241.64;;;22.24;56.83
73073;BME280;61260;51.090;-1.786;2022-09-01T08:24:53;101242.52;;;21.93;57.72
73073;BME280;61260;51.090;-1.786;2022-09-01T08:27:22;101238.70;;;21.79;58.27
73073;BME280;61260;51.090;-1.786;2022-09-01T08:29:52;101247.10;;;21.81;58.60
73073;BME280;61260;51.090;-1.786;2022-09-01T08:32:22;101241.30;;;22.41;58.02
73073;BME280;61260;51.090;-1.786;2022-09-01T08:34:51;101236.27;;;23.24;55.00
73073;BME280;61260;51.090;-1.786;2022-09-01T08:37:21;101234.38;;;23.75;53.72
73073;BME280;61260;51.090;-1.786;2022-09-01T08:39:52;101234.12;;;24.02;52.74
73073;BME280;61260;51.090;-1.786;2022-09-01T08:42:32;101232.70;;;24.18;52.18
73073;BME280;61260;51.090;-1.786;2022-09-01T08:45:10;101236.12;;;24.34;51.40
73073;BME280;61260;51.090;-1.786;2022-09-01T08:47:43;101232.78;;;24.55;50.56
73073;BME280;61260;51.090;-1.786;2022-09-01T08:50:14;101234.86;;;24.67;49.82
73073;BME280;61260;51.090;-1.786;2022-09-01T08:52:53;101228.04;;;24.83;50.61
73073;BME280;61260;51.090;-1.786;2022-09-01T08:55:30;101223.40;;;25.29;49.34
73073;BME280;61260;51.090;-1.786;2022-09-01T08:58:06;101225.37;;;25.31;47.80
73073;BME280;61260;51.090;-1.786;2022-09-01T09:00:40;101227.25;;;25.38;47.89
73073;BME280;61260;51.090;-1.786;2022-09-01T09:03:20;101225.14;;;25.51;47.28
73073;BME280;61260;51.090;-1.786;2022-09-01T09:06:14;101220.58;;;25.43;46.95
73073;BME280;61260;51.090;-1.786;2022-09-01T09:08:57;101219.53;;;25.60;47.01
73073;BME280;61260;51.090;-1.786;2022-09-01T09:11:43;101218.32;;;26.07;46.97
73073;BME280;61260;51.090;-1.786;2022-09-01T09:14:24;101220.03;;;26.48;45.04
73073;BME280;61260;51.090;-1.786;2022-09-01T09:16:57;101214.65;;;26.23;45.13
73073;BME280;61260;51.090;-1.786;2022-09-01T09:19:30;101213.09;;;26.66;44.60
73073;BME280;61260;51.090;-1.786;2022-09-01T09:22:01;101210.59;;;27.17;43.47
73073;BME280;61260;51.090;-1.786;2022-09-01T09:24:35;101211.39;;;27.15;41.99
73073;BME280;61260;51.090;-1.786;2022-09-01T09:27:20;101213.29;;;27.10;42.43
73073;BME280;61260;51.090;-1.786;2022-09-01T09:29:52;101207.11;;;27.22;41.94
73073;BME280;61260;51.090;-1.786;2022-09-01T09:32:24;101198.95;;;27.50;41.34
73073;BME280;61260;51.090;-1.786;2022-09-01T09:35:22;101202.90;;;27.91;40.11
73073;BME280;61260;51.090;-1.786;2022-09-01T09:37:53;101197.79;;;28.27;39.68
73073;BME280;61260;51.090;-1.786;2022-09-01T09:40:24;101192.41;;;28.24;39.05
73073;BME280;61260;51.090;-1.786;2022-09-01T09:43:10;101193.54;;;27.93;39.70
73073;BME280;61260;51.090;-1.786;2022-09-01T09:45:44;101189.60;;;28.19;39.08
73073;BME280;61260;51.090;-1.786;2022-09-01T09:48:29;101183.19;;;28.39;38.99
73073;BME280;61260;51.090;-1.786;2022-09-01T09:51:16;101185.29;;;28.33;38.94
73073;BME280;61260;51.090;-1.786;2022-09-01T09:53:46;101185.96;;;28.97;37.11
73073;BME280;61260;51.090;-1.786;2022-09-01T09:56:19;101182.67;;;29.81;36.95
73073;BME280;61260;51.090;-1.786;2022-09-01T09:58:53;101185.56;;;30.54;34.64
73073;BME280;61260;51.090;-1.786;2022-09-01T10:01:30;101177.96;;;30.45;33.77
73073;BME280;61260;51.090;-1.786;2022-09-01T10:04:01;101184.91;;;30.13;34.30
73073;BME280;61260;51.090;-1.786;2022-09-01T10:06:34;101183.92;;;29.75;34.65
73073;BME280;61260;51.090;-1.786;2022-09-01T10:09:07;101179.69;;;29.14;35.37
73073;BME280;61260;51.090;-1.786;2022-09-01T10:11:40;101183.55;;;28.71;36.06
73073;BME280;61260;51.090;-1.786;2022-09-01T10:14:18;101178.11;;;28.27;36.84
73073;BME280;61260;51.090;-1.786;2022-09-01T10:16:51;101177.46;;;28.22;37.12
73073;BME280;61260;51.090;-1.786;2022-09-01T10:19:23;101174.11;;;28.53;36.72
73073;BME280;61260;51.090;-1.786;2022-09-01T10:21:53;101175.23;;;28.11;36.73
73073;BME280;61260;51.090;-1.786;2022-09-01T10:24:27;101174.10;;;28.02;37.10
73073;BME280;61260;51.090;-1.786;2022-09-01T10:27:00;101170.91;;;28.23;37.09
73073;BME280;61260;51.090;-1.786;2022-09-01T10:29:33;101166.17;;;27.66;37.54
73073;BME280;61260;51.090;-1.786;2022-09-01T10:32:09;101161.83;;;27.16;38.54
73073;BME280;61260;51.090;-1.786;2022-09-01T10:34:41;101168.13;;;26.99;39.32
73073;BME280;61260;51.090;-1.786;2022-09-01T10:37:11;101168.05;;;26.90;39.50
73073;BME280;61260;51.090;-1.786;2022-09-01T10:42:46;101175.08;;;26.59;40.34
73073;BME280;61260;51.090;-1.786;2022-09-01T10:45:32;101167.02;;;26.25;41.06
73073;BME280;61260;51.090;-1.786;2022-09-01T10:48:29;101171.02;;;26.34;41.10
73073;BME280;61260;51.090;-1.786;2022-09-01T10:54:05;101166.27;;;25.80;42.30
73073;BME280;61260;51.090;-1.786;2022-09-01T10:56:40;101163.56;;;25.68;42.80
73073;BME280;61260;51.090;-1.786;2022-09-01T10:59:22;101163.45;;;25.85;42.66
73073;BME280;61260;51.090;-1.786;2022-09-01T11:02:16;101163.56;;;26.26;41.97
73073;BME280;61260;51.090;-1.786;2022-09-01T11:05:22;101161.75;;;26.24;41.75
73073;BME280;61260;51.090;-1.786;2022-09-01T11:07:52;101160.78;;;26.48;41.65
73073;BME280;61260;51.090;-1.786;2022-09-01T11:10:49;101156.15;;;26.67;41.24
73073;BME280;61260;51.090;-1.786;2022-09-01T11:13:38;101154.70;;;26.95;40.31
73073;BME280;61260;51.090;-1.786;2022-09-01T11:16:34;101154.59;;;27.15;39.66
73073;BME280;61260;51.090;-1.786;2022-09-01T11:19:27;101154.13;;;26.77;40.47
73073;BME280;61260;51.090;-1.786;2022-09-01T11:22:20;101160.30;;;26.22;41.37
73073;BME280;61260;51.090;-1.786;2022-09-01T11:25:06;101154.23;;;25.94;41.95
73073;BME280;61260;51.090;-1.786;2022-09-01T11:28:00;101152.48;;;25.59;42.77
73073;BME280;61260;51.090;-1.786;2022-09-01T11:30:50;101150.84;;;25.26;43.66
73073;BME280;61260;51.090;-1.786;2022-09-01T11:33:41;101145.54;;;24.98;44.09
73073;BME280;61260;51.090;-1.786;2022-09-01T11:36:28;101144.93;;;24.78;44.59
73073;BME280;61260;51.090;-1.786;2022-09-01T11:39:07;101149.14;;;24.67;44.81
73073;BME280;61260;51.090;-1.786;2022-09-01T11:41:49;101142.05;;;24.46;45.27
73073;BME280;61260;51.090;-1.786;2022-09-01T11:44:24;101133.36;;;24.41;45.75
73073;BME280;61260;51.090;-1.786;2022-09-01T11:47:04;101133.35;;;24.36;45.84
73073;BME280;61260;51.090;-1.786;2022-09-01T11:49:36;101133.05;;;24.25;45.98
73073;BME280;61260;51.090;-1.786;2022-09-01T11:52:06;101137.69;;;24.20;46.20
73073;BME280;61260;51.090;-1.786;2022-09-01T11:54:44;101140.50;;;24.33;46.02
73073;BME280;61260;51.090;-1.786;2022-09-01T11:57:27;101138.13;;;24.41;45.78
73073;BME280;61260;51.090;-1.786;2022-09-01T11:59:58;101135.60;;;24.40;45.81
73073;BME280;61260;51.090;-1.786;2022-09-01T12:02:30;101135.08;;;24.38;45.47
73073;BME280;61260;51.090;-1.786;2022-09-01T12:05:03;101130.11;;;24.35;45.59
73073;BME280;61260;51.090;-1.786;2022-09-01T12:07:52;101133.11;;;24.27;45.58
73073;BME280;61260;51.090;-1.786;2022-09-01T12:10:28;101135.29;;;24.20;45.96
73073;BME280;61260;51.090;-1.786;2022-09-01T12:13:04;101137.52;;;24.05;46.25
73073;BME280;61260;51.090;-1.786;2022-09-01T12:15:36;101140.17;;;23.98;46.55
73073;BME280;61260;51.090;-1.786;2022-09-01T12:18:15;101141.58;;;23.95;46.65
73073;BME280;61260;51.090;-1.786;2022-09-01T12:20:50;101138.22;;;23.97;46.76
73073;BME280;61260;51.090;-1.786;2022-09-01T12:23:24;101138.53;;;24.22;46.31
73073;BME280;61260;51.090;-1.786;2022-09-01T12:25:57;101134.39;;;24.70;45.44
73073;BME280;61260;51.090;-1.786;2022-09-01T12:28:29;101134.56;;;24.82;45.40
73073;BME280;61260;51.090;-1.786;2022-09-01T12:30:58;101139.04;;;24.91;44.86
73073;BME280;61260;51.090;-1.786;2022-09-01T12:33:29;101140.58;;;24.81;44.54
73073;BME280;61260;51.090;-1.786;2022-09-01T12:36:17;101137.04;;;24.69;44.74
73073;BME280;61260;51.090;-1.786;2022-09-01T12:38:48;101135.42;;;24.71;45.06
73073;BME280;61260;51.090;-1.786;2022-09-01T12:41:30;101141.58;;;24.66;44.82
73073;BME280;61260;51.090;-1.786;2022-09-01T12:44:27;101137.55;;;24.58;45.26
73073;BME280;61260;51.090;-1.786;2022-09-01T12:46:58;101137.21;;;24.55;45.22
73073;BME280;61260;51.090;-1.786;2022-09-01T12:49:33;101131.92;;;24.45;45.60
73073;BME280;61260;51.090;-1.786;2022-09-01T12:52:19;101134.63;;;24.45;45.80
73073;BME280;61260;51.090;-1.786;2022-09-01T12:54:54;101130.23;;;24.41;45.77
73073;BME280;61260;51.090;-1.786;2022-09-01T12:57:37;101128.44;;;24.39;45.89
73073;BME280;61260;51.090;-1.786;2022-09-01T13:00:15;101132.00;;;24.36;45.78
73073;BME280;61260;51.090;-1.786;2022-09-01T13:02:48;101126.83;;;24.26;45.70
73073;BME280;61260;51.090;-1.786;2022-09-01T13:05:25;101118.77;;;24.22;45.99
73073;BME280;61260;51.090;-1.786;2022-09-01T13:07:57;101114.89;;;24.20;46.13
73073;BME280;61260;51.090;-1.786;2022-09-01T13:10:32;101112.67;;;24.19;45.94
73073;BME280;61260;51.090;-1.786;2022-09-01T13:13:03;101113.19;;;24.17;45.96
73073;BME280;61260;51.090;-1.786;2022-09-01T13:15:34;101110.20;;;24.19;45.85
73073;BME280;61260;51.090;-1.786;2022-09-01T13:18:04;101114.36;;;24.19;45.65